Barksdale Air Force Base Bossier City US
ICAO: KBAD
IATA: BAD
Category: Large
Scheduled Services: No

Elevation: 166 ft
TransAlt. 18000 ft.

Airport Communications:
SHREVEPORT APP/DEP:119.9
ATIS:37.58
GND:121.8
PMSV METRO:37.362
COMD POST:31.1
PTD:37.22
TWR:128.25

KBAD Zoom In..

Runways:

(A) RW 15 length 11758 ft width 299 ft
ILS 108.90 / hdg 146

(B) RW 33 length 11758 ft width 299 ft
ILS 109.90 / hdg 326

Location; KBAD
Day. 20 / Time. 19.56 Zulu
* Altimeter: 29.89
* Temperature: 38° c. 100.4°f.
* Wind from: 180° Speed 07 kn.
Dewpoint: 19° c.
Visibility: 10 Statute Miles.
Clouds: Few 18000 ft.

KBAD 201956Z AUTO 18007KT 10SM FEW180 38/19 A2989 RMK AO2 SLP122 T03810190


Wind From 180°
Speed 07 kn.

 
 
jpsmedia.com for Web Design worldairports.se 2018   terms of use